sensor_id;sensor_type;location;lat;lon;timestamp;temperature;humidity
10312;DHT22;5201;48.776;9.128;2024-01-15T00:01:53;-0.40;99.90
10312;DHT22;5201;48.776;9.128;2024-01-15T00:04:18;-0.40;99.90
10312;DHT22;5201;48.776;9.128;2024-01-15T00:06:44;0.30;99.90
10312;DHT22;5201;48.776;9.128;2024-01-15T00:09:10;-0.30;99.90
10312;DHT22;5201;48.776;9.128;2024-01-15T00:11:35;-0.10;99.90
10312;DHT22;5201;48.776;9.128;2024-01-15T00:14:01;0.00;99.90
10312;DHT22;5201;48.776;9.128;2024-01-15T00:16:26;-0.10;99.90
10312;DHT22;5201;48.776;9.128;2024-01-15T00:18:52;-0.20;99.90
10312;DHT22;5201;48.776;9.128;2024-01-15T00:21:17;-0.30;99.90
10312;DHT22;5201;48.776;9.128;2024-01-15T00:23:43;-0.30;99.90
10312;DHT22;5201;48.776;9.128;2024-01-15T00:26:12;-0.20;99.90
10312;DHT22;5201;48.776;9.128;2024-01-15T00:28:38;-0.30;99.90
10312;DHT22;5201;48.776;9.128;2024-01-15T00:31:06;-0.50;99.90
10312;DHT22;5201;48.776;9.128;2024-01-15T00:33:32;-0.50;99.90
10312;DHT22;5201;48.776;9.128;2024-01-15T00:35:58;-0.60;99.90
10312;DHT22;5201;48.776;9.128;2024-01-15T00:38:24;-0.60;99.90
10312;DHT22;5201;48.776;9.128;2024-01-15T00:40:49;-0.60;99.90
10312;DHT22;5201;48.776;9.128;2024-01-15T00:43:15;-0.60;99.90
10312;DHT22;5201;48.776;9.128;2024-01-15T00:45:43;-0.60;99.90
10312;DHT22;5201;48.776;9.128;2024-01-15T00:48:09;-0.70;99.90
10312;DHT22;5201;48.776;9.128;2024-01-15T00:50:34;0.10;99.90
10312;DHT22;5201;48.776;9.128;2024-01-15T00:53:00;-0.70;99.90
10312;DHT22;5201;48.776;9.128;2024-01-15T00:55:26;-0.80;99.90
10312;DHT22;5201;48.776;9.128;2024-01-15T00:57:52;-0.70;99.90
10312;DHT22;5201;48.776;9.128;2024-01-15T01:00:18;-0.70;99.90
10312;DHT22;5201;48.776;9.128;2024-01-15T01:02:43;0.00;99.90
10312;DHT22;5201;48.776;9.128;2024-01-15T01:05:09;-0.60;99.90
10312;DHT22;5201;48.776;9.128;2024-01-15T01:07:34;-0.50;99.90
10312;DHT22;5201;48.776;9.128;2024-01-15T01:10:00;-0.50;99.90
10312;DHT22;5201;48.776;9.128;2024-01-15T01:12:26;-0.60;99.90
10312;DHT22;5201;48.776;9.128;2024-01-15T01:14:51;-0.60;99.90
10312;DHT22;5201;48.776;9.128;2024-01-15T01:17:17;-0.40;99.90
10312;DHT22;5201;48.776;9.128;2024-01-15T01:19:43;-0.70;99.90
10312;DHT22;5201;48.776;9.128;2024-01-15T01:22:08;-0.50;99.90
10312;DHT22;5201;48.776;9.128;2024-01-15T01:24:34;-0.50;99.90
10312;DHT22;5201;48.776;9.128;2024-01-15T01:26:59;-0.50;99.90
10312;DHT22;5201;48.776;9.128;2024-01-15T01:29:25;-0.40;99.90
10312;DHT22;5201;48.776;9.128;2024-01-15T01:31:52;-0.30;99.90
10312;DHT22;5201;48.776;9.128;2024-01-15T01:34:17;-0.30;99.90
10312;DHT22;5201;48.776;9.128;2024-01-15T01:36:43;-0.30;99.90
10312;DHT22;5201;48.776;9.128;2024-01-15T01:39:09;-0.30;99.90
10312;DHT22;5201;48.776;9.128;2024-01-15T01:41:35;-0.40;99.90
10312;DHT22;5201;48.776;9.128;2024-01-15T01:44:01;-0.40;99.90
10312;DHT22;5201;48.776;9.128;2024-01-15T01:46:27;-0.20;99.90
10312;DHT22;5201;48.776;9.128;2024-01-15T01:48:55;-0.20;99.90
10312;DHT22;5201;48.776;9.128;2024-01-15T01:51:23;-0.10;99.90
10312;DHT22;5201;48.776;9.128;2024-01-15T01:53:50;-0.10;99.90
10312;DHT22;5201;48.776;9.128;2024-01-15T01:56:17;0.00;99.90
10312;DHT22;5201;48.776;9.128;2024-01-15T01:58:43;-0.10;99.90
10312;DHT22;5201;48.776;9.128;2024-01-15T02:01:11;-0.10;99.90
10312;DHT22;5201;48.776;9.128;2024-01-15T02:03:37;0.00;99.90
10312;DHT22;5201;48.776;9.128;2024-01-15T02:06:03;0.00;99.90
10312;DHT22;5201;48.776;9.128;2024-01-15T02:08:29;0.10;99.90
10312;DHT22;5201;48.776;9.128;2024-01-15T02:10:55;0.10;99.90
10312;DHT22;5201;48.776;9.128;2024-01-15T02:13:21;0.10;99.90
10312;DHT22;5201;48.776;9.128;2024-01-15T02:15:46;0.20;99.90
10312;DHT22;5201;48.776;9.128;2024-01-15T02:18:12;0.20;99.90
10312;DHT22;5201;48.776;9.128;2024-01-15T02:20:37;0.00;99.90
10312;DHT22;5201;48.776;9.128;2024-01-15T02:23:09;0.00;99.90
10312;DHT22;5201;48.776;9.128;2024-01-15T02:25:40;0.00;99.90
10312;DHT22;5201;48.776;9.128;2024-01-15T02:28:06;-0.10;99.90
10312;DHT22;5201;48.776;9.128;2024-01-15T02:30:36;0.00;99.90
10312;DHT22;5201;48.776;9.128;2024-01-15T02:33:06;-0.10;99.90
10312;DHT22;5201;48.776;9.128;2024-01-15T02:35:31;-0.10;99.90
10312;DHT22;5201;48.776;9.128;2024-01-15T02:37:57;0.00;99.90
10312;DHT22;5201;48.776;9.128;2024-01-15T02:40:23;0.00;99.90
10312;DHT22;5201;48.776;9.128;2024-01-15T02:42:48;0.00;99.90
10312;DHT22;5201;48.776;9.128;2024-01-15T02:45:14;-0.30;99.90
10312;DHT22;5201;48.776;9.128;2024-01-15T02:47:39;-0.20;99.90
10312;DHT22;5201;48.776;9.128;2024-01-15T02:50:05;-0.20;99.90
10312;DHT22;5201;48.776;9.128;2024-01-15T02:52:31;-0.20;99.90
10312;DHT22;5201;48.776;9.128;2024-01-15T02:54:57;-0.10;99.90
10312;DHT22;5201;48.776;9.128;2024-01-15T02:57:23;-0.10;99.90
10312;DHT22;5201;48.776;9.128;2024-01-15T02:59:48;-0.20;99.90
10312;DHT22;5201;48.776;9.128;2024-01-15T03:02:14;-0.20;99.90
10312;DHT22;5201;48.776;9.128;2024-01-15T03:04:43;-0.30;99.90
10312;DHT22;5201;48.776;9.128;2024-01-15T03:07:09;-0.20;99.90
10312;DHT22;5201;48.776;9.128;2024-01-15T03:09:34;-0.10;99.90
10312;DHT22;5201;48.776;9.128;2024-01-15T03:12:00;-0.30;99.90
10312;DHT22;5201;48.776;9.128;2024-01-15T03:14:26;-0.30;99.90
10312;DHT22;5201;48.776;9.128;2024-01-15T03:16:52;-0.30;99.90
10312;DHT22;5201;48.776;9.128;2024-01-15T03:19:17;-0.40;99.90
10312;DHT22;5201;48.776;9.128;2024-01-15T03:21:43;-0.40;99.90
10312;DHT22;5201;48.776;9.128;2024-01-15T03:24:09;-0.40;99.90
10312;DHT22;5201;48.776;9.128;2024-01-15T03:26:34;-0.30;99.90
10312;DHT22;5201;48.776;9.128;2024-01-15T03:29:00;-0.30;99.90
10312;DHT22;5201;48.776;9.128;2024-01-15T03:31:26;-0.30;99.90
10312;DHT22;5201;48.776;9.128;2024-01-15T03:33:51;-0.40;99.90
10312;DHT22;5201;48.776;9.128;2024-01-15T03:36:17;-0.30;99.90
10312;DHT22;5201;48.776;9.128;2024-01-15T03:38:43;-0.30;99.90
10312;DHT22;5201;48.776;9.128;2024-01-15T03:41:08;-0.20;99.90
10312;DHT22;5201;48.776;9.128;2024-01-15T03:43:34;-0.40;99.90
10312;DHT22;5201;48.776;9.128;2024-01-15T03:45:59;-0.40;99.90
10312;DHT22;5201;48.776;9.128;2024-01-15T03:48:25;-0.30;99.90
10312;DHT22;5201;48.776;9.128;2024-01-15T03:50:50;-0.30;99.90
10312;DHT22;5201;48.776;9.128;2024-01-15T03:53:16;-0.20;99.90
10312;DHT22;5201;48.776;9.128;2024-01-15T03:55:42;-0.10;99.90
10312;DHT22;5201;48.776;9.128;2024-01-15T03:58:08;-0.10;99.90
10312;DHT22;5201;48.776;9.128;2024-01-15T04:00:34;-0.10;99.90
10312;DHT22;5201;48.776;9.128;2024-01-15T04:03:00;-0.10;99.90
10312;DHT22;5201;48.776;9.128;2024-01-15T04:05:25;-0.10;99.90
10312;DHT22;5201;48.776;9.128;2024-01-15T04:07:51;0.00;99.90
10312;DHT22;5201;48.776;9.128;2024-01-15T04:10:17;0.00;99.90
10312;DHT22;5201;48.776;9.128;2024-01-15T04:12:42;0.00;99.90
10312;DHT22;5201;48.776;9.128;2024-01-15T04:15:08;0.00;99.90
10312;DHT22;5201;48.776;9.128;2024-01-15T04:17:34;0.00;99.90
10312;DHT22;5201;48.776;9.128;2024-01-15T04:19:59;0.00;99.90
10312;DHT22;5201;48.776;9.128;2024-01-15T04:22:26;0.10;99.90
10312;DHT22;5201;48.776;9.128;2024-01-15T04:24:52;0.20;99.90
10312;DHT22;5201;48.776;9.128;2024-01-15T04:27:17;0.20;99.90
10312;DHT22;5201;48.776;9.128;2024-01-15T04:29:43;0.10;99.90
10312;DHT22;5201;48.776;9.128;2024-01-15T04:32:10;0.10;99.90
10312;DHT22;5201;48.776;9.128;2024-01-15T04:34:35;0.10;99.90
10312;DHT22;5201;48.776;9.128;2024-01-15T04:37:01;0.20;99.90
10312;DHT22;5201;48.776;9.128;2024-01-15T04:39:26;0.30;99.90
10312;DHT22;5201;48.776;9.128;2024-01-15T04:41:52;0.30;99.90
10312;DHT22;5201;48.776;9.128;2024-01-15T04:44:18;0.20;99.90
10312;DHT22;5201;48.776;9.128;2024-01-15T04:46:44;0.10;99.90
10312;DHT22;5201;48.776;9.128;2024-01-15T04:49:10;0.10;99.90
10312;DHT22;5201;48.776;9.128;2024-01-15T04:51:35;0.10;99.90
10312;DHT22;5201;48.776;9.128;2024-01-15T04:54:01;0.10;99.90
10312;DHT22;5201;48.776;9.128;2024-01-15T04:56:26;0.10;99.90
10312;DHT22;5201;48.776;9.128;2024-01-15T04:58:52;0.10;99.90
10312;DHT22;5201;48.776;9.128;2024-01-15T05:01:18;0.20;99.90
10312;DHT22;5201;48.776;9.128;2024-01-15T05:03:43;0.20;99.90
10312;DHT22;5201;48.776;9.128;2024-01-15T05:06:09;0.10;99.90
10312;DHT22;5201;48.776;9.128;2024-01-15T05:08:35;0.00;99.90
10312;DHT22;5201;48.776;9.128;2024-01-15T05:11:00;0.00;99.90
10312;DHT22;5201;48.776;9.128;2024-01-15T05:13:26;0.10;99.90
10312;DHT22;5201;48.776;9.128;2024-01-15T05:15:52;0.20;99.90
10312;DHT22;5201;48.776;9.128;2024-01-15T05:18:18;0.10;99.90
10312;DHT22;5201;48.776;9.128;2024-01-15T05:20:44;0.00;99.90
10312;DHT22;5201;48.776;9.128;2024-01-15T05:23:09;0.10;99.90
10312;DHT22;5201;48.776;9.128;2024-01-15T05:25:35;0.20;99.90
10312;DHT22;5201;48.776;9.128;2024-01-15T05:28:01;0.20;99.90
10312;DHT22;5201;48.776;9.128;2024-01-15T05:30:26;0.20;99.90
10312;DHT22;5201;48.776;9.128;2024-01-15T05:32:52;0.20;99.90
10312;DHT22;5201;48.776;9.128;2024-01-15T05:35:18;0.10;99.90
10312;DHT22;5201;48.776;9.128;2024-01-15T05:37:44;0.20;99.90
10312;DHT22;5201;48.776;9.128;2024-01-15T05:40:11;0.20;99.90
10312;DHT22;5201;48.776;9.128;2024-01-15T05:42:38;0.10;99.90
10312;DHT22;5201;48.776;9.128;2024-01-15T05:45:05;0.10;99.90
10312;DHT22;5201;48.776;9.128;2024-01-15T05:47:31;0.10;99.90
10312;DHT22;5201;48.776;9.128;2024-01-15T05:49:57;0.20;99.90
10312;DHT22;5201;48.776;9.128;2024-01-15T05:52:23;0.30;99.90
10312;DHT22;5201;48.776;9.128;2024-01-15T05:54:49;0.30;99.90
10312;DHT22;5201;48.776;9.128;2024-01-15T05:57:15;0.90;99.90
10312;DHT22;5201;48.776;9.128;2024-01-15T05:59:42;0.30;99.90
10312;DHT22;5201;48.776;9.128;2024-01-15T06:02:08;0.20;99.90
10312;DHT22;5201;48.776;9.128;2024-01-15T06:04:33;0.30;99.90
10312;DHT22;5201;48.776;9.128;2024-01-15T06:06:59;0.20;99.90
10312;DHT22;5201;48.776;9.128;2024-01-15T06:09:24;0.30;99.90
10312;DHT22;5201;48.776;9.128;2024-01-15T06:11:50;0.30;99.90
10312;DHT22;5201;48.776;9.128;2024-01-15T06:14:15;0.50;99.90
10312;DHT22;5201;48.776;9.128;2024-01-15T06:16:41;0.50;99.90
10312;DHT22;5201;48.776;9.128;2024-01-15T06:19:06;0.60;99.90
10312;DHT22;5201;48.776;9.128;2024-01-15T06:21:32;0.60;99.90
10312;DHT22;5201;48.776;9.128;2024-01-15T06:23:57;0.50;99.90
10312;DHT22;5201;48.776;9.128;2024-01-15T06:26:23;0.60;99.90
10312;DHT22;5201;48.776;9.128;2024-01-15T06:28:49;0.60;99.90
10312;DHT22;5201;48.776;9.128;2024-01-15T06:31:14;0.70;99.90
10312;DHT22;5201;48.776;9.128;2024-01-15T06:33:40;0.70;99.90
10312;DHT22;5201;48.776;9.128;2024-01-15T06:36:06;0.60;99.90
10312;DHT22;5201;48.776;9.128;2024-01-15T06:38:32;0.50;99.90
10312;DHT22;5201;48.776;9.128;2024-01-15T06:40:57;0.60;99.90
10312;DHT22;5201;48.776;9.128;2024-01-15T06:43:23;0.60;99.90
10312;DHT22;5201;48.776;9.128;2024-01-15T06:45:49;0.50;99.90
10312;DHT22;5201;48.776;9.128;2024-01-15T06:48:15;0.50;99.90
10312;DHT22;5201;48.776;9.128;2024-01-15T06:50:42;0.40;99.90
10312;DHT22;5201;48.776;9.128;2024-01-15T06:53:08;0.50;99.90
10312;DHT22;5201;48.776;9.128;2024-01-15T06:55:33;0.50;99.90
10312;DHT22;5201;48.776;9.128;2024-01-15T06:57:59;0.50;99.90
10312;DHT22;5201;48.776;9.128;2024-01-15T07:00:25;0.40;99.90
10312;DHT22;5201;48.776;9.128;2024-01-15T07:02:50;0.50;99.90
10312;DHT22;5201;48.776;9.128;2024-01-15T07:05:17;0.40;99.90
10312;DHT22;5201;48.776;9.128;2024-01-15T07:07:42;0.50;99.90
10312;DHT22;5201;48.776;9.128;2024-01-15T07:10:08;0.40;99.90
10312;DHT22;5201;48.776;9.128;2024-01-15T07:12:34;0.40;99.90
10312;DHT22;5201;48.776;9.128;2024-01-15T07:15:00;0.50;99.90
10312;DHT22;5201;48.776;9.128;2024-01-15T07:17:25;0.50;99.90
10312;DHT22;5201;48.776;9.128;2024-01-15T07:19:51;0.50;99.90
10312;DHT22;5201;48.776;9.128;2024-01-15T07:22:17;0.50;99.90
10312;DHT22;5201;48.776;9.128;2024-01-15T07:24:43;1.20;99.90
10312;DHT22;5201;48.776;9.128;2024-01-15T07:27:09;0.60;99.90
10312;DHT22;5201;48.776;9.128;2024-01-15T07:29:35;0.60;99.90
10312;DHT22;5201;48.776;9.128;2024-01-15T07:32:04;0.60;99.90
10312;DHT22;5201;48.776;9.128;2024-01-15T07:34:30;0.50;99.90
10312;DHT22;5201;48.776;9.128;2024-01-15T07:36:57;0.40;99.90
10312;DHT22;5201;48.776;9.128;2024-01-15T07:39:22;0.50;99.90
10312;DHT22;5201;48.776;9.128;2024-01-15T07:41:50;0.60;99.90
10312;DHT22;5201;48.776;9.128;2024-01-15T07:44:15;0.50;99.90
10312;DHT22;5201;48.776;9.128;2024-01-15T07:46:45;0.50;99.90
10312;DHT22;5201;48.776;9.128;2024-01-15T07:49:11;0.60;99.90
10312;DHT22;5201;48.776;9.128;2024-01-15T07:51:36;0.60;99.90
10312;DHT22;5201;48.776;9.128;2024-01-15T07:54:02;0.70;99.90
10312;DHT22;5201;48.776;9.128;2024-01-15T07:56:27;1.40;99.90
10312;DHT22;5201;48.776;9.128;2024-01-15T07:58:53;0.70;99.90
10312;DHT22;5201;48.776;9.128;2024-01-15T08:01:19;0.70;99.90
10312;DHT22;5201;48.776;9.128;2024-01-15T08:03:44;0.70;99.90
10312;DHT22;5201;48.776;9.128;2024-01-15T08:06:10;0.70;99.90
10312;DHT22;5201;48.776;9.128;2024-01-15T08:08:37;0.70;99.90
10312;DHT22;5201;48.776;9.128;2024-01-15T08:11:02;0.80;99.90
10312;DHT22;5201;48.776;9.128;2024-01-15T08:13:28;0.80;99.90
10312;DHT22;5201;48.776;9.128;2024-01-15T08:15:53;0.80;99.90
10312;DHT22;5201;48.776;9.128;2024-01-15T08:18:19;1.30;99.90
10312;DHT22;5201;48.776;9.128;2024-01-15T08:20:47;0.80;99.90
10312;DHT22;5201;48.776;9.128;2024-01-15T08:23:12;0.80;99.90
10312;DHT22;5201;48.776;9.128;2024-01-15T08:25:38;0.90;99.90
10312;DHT22;5201;48.776;9.128;2024-01-15T08:28:04;0.90;99.90
10312;DHT22;5201;48.776;9.128;2024-01-15T08:30:29;1.00;99.90
10312;DHT22;5201;48.776;9.128;2024-01-15T08:32:55;1.00;99.90
10312;DHT22;5201;48.776;9.128;2024-01-15T08:35:21;1.20;99.90
10312;DHT22;5201;48.776;9.128;2024-01-15T08:37:54;1.30;99.90
10312;DHT22;5201;48.776;9.128;2024-01-15T08:40:20;1.30;99.90
10312;DHT22;5201;48.776;9.128;2024-01-15T08:42:46;1.40;99.90
10312;DHT22;5201;48.776;9.128;2024-01-15T08:45:12;1.40;99.90
10312;DHT22;5201;48.776;9.128;2024-01-15T08:47:38;1.50;99.90
10312;DHT22;5201;48.776;9.128;2024-01-15T08:50:04;1.50;99.90
10312;DHT22;5201;48.776;9.128;2024-01-15T08:52:30;1.50;99.90
10312;DHT22;5201;48.776;9.128;2024-01-15T08:54:56;1.50;99.90
10312;DHT22;5201;48.776;9.128;2024-01-15T08:57:22;1.40;99.90
10312;DHT22;5201;48.776;9.128;2024-01-15T08:59:47;1.40;99.90
10312;DHT22;5201;48.776;9.128;2024-01-15T09:02:13;1.40;99.90
10312;DHT22;5201;48.776;9.128;2024-01-15T09:04:39;1.50;99.90
10312;DHT22;5201;48.776;9.128;2024-01-15T09:07:05;1.50;99.90
10312;DHT22;5201;48.776;9.128;2024-01-15T09:09:30;1.50;99.90
10312;DHT22;5201;48.776;9.128;2024-01-15T09:11:56;1.40;99.90
10312;DHT22;5201;48.776;9.128;2024-01-15T09:14:22;1.40;99.90
10312;DHT22;5201;48.776;9.128;2024-01-15T09:16:51;1.40;99.90
10312;DHT22;5201;48.776;9.128;2024-01-15T09:19:16;1.30;99.90
10312;DHT22;5201;48.776;9.128;2024-01-15T09:21:42;1.50;99.90
10312;DHT22;5201;48.776;9.128;2024-01-15T09:24:07;1.50;99.90
10312;DHT22;5201;48.776;9.128;2024-01-15T09:26:33;1.40;99.90
10312;DHT22;5201;48.776;9.128;2024-01-15T09:28:59;1.40;99.90
10312;DHT22;5201;48.776;9.128;2024-01-15T09:31:24;1.50;99.90
10312;DHT22;5201;48.776;9.128;2024-01-15T09:33:50;1.50;99.90
10312;DHT22;5201;48.776;9.128;2024-01-15T09:36:21;1.50;99.90
10312;DHT22;5201;48.776;9.128;2024-01-15T09:38:48;1.70;99.90
10312;DHT22;5201;48.776;9.128;2024-01-15T09:41:14;1.70;99.90
10312;DHT22;5201;48.776;9.128;2024-01-15T09:43:40;1.80;99.90
10312;DHT22;5201;48.776;9.128;2024-01-15T09:46:06;1.90;99.90
10312;DHT22;5201;48.776;9.128;2024-01-15T09:48:31;1.90;99.90
10312;DHT22;5201;48.776;9.128;2024-01-15T09:51:01;2.10;99.90
10312;DHT22;5201;48.776;9.128;2024-01-15T09:53:27;2.00;99.90
10312;DHT22;5201;48.776;9.128;2024-01-15T09:55:53;2.10;99.90
10312;DHT22;5201;48.776;9.128;2024-01-15T09:58:19;2.00;99.90
10312;DHT22;5201;48.776;9.128;2024-01-15T10:00:47;2.00;99.90
10312;DHT22;5201;48.776;9.128;2024-01-15T10:03:15;2.80;99.90
10312;DHT22;5201;48.776;9.128;2024-01-15T10:05:41;2.00;99.90
10312;DHT22;5201;48.776;9.128;2024-01-15T10:08:07;2.00;99.90
10312;DHT22;5201;48.776;9.128;2024-01-15T10:10:32;1.90;99.90
10312;DHT22;5201;48.776;9.128;2024-01-15T10:12:59;1.90;99.90
10312;DHT22;5201;48.776;9.128;2024-01-15T10:15:28;1.70;99.90
10312;DHT22;5201;48.776;9.128;2024-01-15T10:17:54;1.70;99.90
10312;DHT22;5201;48.776;9.128;2024-01-15T10:20:20;1.80;99.90
10312;DHT22;5201;48.776;9.128;2024-01-15T10:22:47;2.00;99.90
10312;DHT22;5201;48.776;9.128;2024-01-15T10:25:14;2.00;99.90
10312;DHT22;5201;48.776;9.128;2024-01-15T10:27:43;2.10;99.90
10312;DHT22;5201;48.776;9.128;2024-01-15T10:30:10;2.10;99.90
10312;DHT22;5201;48.776;9.128;2024-01-15T10:32:36;1.90;99.90
10312;DHT22;5201;48.776;9.128;2024-01-15T10:35:02;1.90;99.90
10312;DHT22;5201;48.776;9.128;2024-01-15T10:37:33;1.90;99.90
10312;DHT22;5201;48.776;9.128;2024-01-15T10:40:04;1.80;99.90
10312;DHT22;5201;48.776;9.128;2024-01-15T10:42:32;1.70;99.90
10312;DHT22;5201;48.776;9.128;2024-01-15T10:44:58;1.80;99.90
10312;DHT22;5201;48.776;9.128;2024-01-15T10:47:23;1.80;99.90
10312;DHT22;5201;48.776;9.128;2024-01-15T10:49:49;1.90;99.90
10312;DHT22;5201;48.776;9.128;2024-01-15T10:52:15;1.90;99.90
10312;DHT22;5201;48.776;9.128;2024-01-15T10:54:41;2.60;99.90
10312;DHT22;5201;48.776;9.128;2024-01-15T10:57:08;2.10;99.90
10312;DHT22;5201;48.776;9.128;2024-01-15T10:59:34;2.00;99.90
10312;DHT22;5201;48.776;9.128;2024-01-15T11:02:01;2.10;99.90
10312;DHT22;5201;48.776;9.128;2024-01-15T11:04:27;2.20;99.90
10312;DHT22;5201;48.776;9.128;2024-01-15T11:06:54;2.20;99.90
10312;DHT22;5201;48.776;9.128;2024-01-15T11:09:20;2.30;99.90
10312;DHT22;5201;48.776;9.128;2024-01-15T11:11:47;4.10;99.90
10312;DHT22;5201;48.776;9.128;2024-01-15T11:14:40;2.30;99.90
10312;DHT22;5201;48.776;9.128;2024-01-15T11:17:06;2.20;99.90
10312;DHT22;5201;48.776;9.128;2024-01-15T11:22:08;2.20;99.90
10312;DHT22;5201;48.776;9.128;2024-01-15T11:24:36;2.20;99.90
10312;DHT22;5201;48.776;9.128;2024-01-15T11:27:02;2.30;99.90
10312;DHT22;5201;48.776;9.128;2024-01-15T11:32:09;2.20;99.90
10312;DHT22;5201;48.776;9.128;2024-01-15T11:34:54;2.20;99.90
10312;DHT22;5201;48.776;9.128;2024-01-15T11:37:21;2.20;99.90
10312;DHT22;5201;48.776;9.128;2024-01-15T11:39:51;2.20;99.90
10312;DHT22;5201;48.776;9.128;2024-01-15T11:42:17;2.10;99.90
10312;DHT22;5201;48.776;9.128;2024-01-15T11:44:44;2.10;99.90
10312;DHT22;5201;48.776;9.128;2024-01-15T11:47:11;2.00;99.90
10312;DHT22;5201;48.776;9.128;2024-01-15T11:50:02;1.90;99.90
10312;DHT22;5201;48.776;9.128;2024-01-15T11:52:38;1.80;99.90
10312;DHT22;5201;48.776;9.128;2024-01-15T11:57:50;1.50;99.90
10312;DHT22;5201;48.776;9.128;2024-01-15T12:00:16;1.50;99.90
10312;DHT22;5201;48.776;9.128;2024-01-15T12:02:43;1.60;99.90
10312;DHT22;5201;48.776;9.128;2024-01-15T12:05:10;1.60;99.90
10312;DHT22;5201;48.776;9.128;2024-01-15T12:07:39;1.70;99.90
10312;DHT22;5201;48.776;9.128;2024-01-15T12:10:08;1.60;99.90
10312;DHT22;5201;48.776;9.128;2024-01-15T12:15:09;1.60;99.90
10312;DHT22;5201;48.776;9.128;2024-01-15T12:17:35;4.00;99.90
10312;DHT22;5201;48.776;9.128;2024-01-15T12:20:03;1.60;99.90
10312;DHT22;5201;48.776;9.128;2024-01-15T12:22:29;1.70;99.90
10312;DHT22;5201;48.776;9.128;2024-01-15T12:24:54;1.60;99.90
10312;DHT22;5201;48.776;9.128;2024-01-15T12:27:20;1.60;99.90
10312;DHT22;5201;48.776;9.128;2024-01-15T12:29:46;1.60;99.90
10312;DHT22;5201;48.776;9.128;2024-01-15T12:32:12;1.60;99.90
10312;DHT22;5201;48.776;9.128;2024-01-15T12:34:38;1.50;99.90
10312;DHT22;5201;48.776;9.128;2024-01-15T12:37:04;1.50;99.90
10312;DHT22;5201;48.776;9.128;2024-01-15T12:39:29;1.40;99.90
10312;DHT22;5201;48.776;9.128;2024-01-15T12:41:55;1.40;99.90
10312;DHT22;5201;48.776;9.128;2024-01-15T12:44:20;1.40;99.90
10312;DHT22;5201;48.776;9.128;2024-01-15T12:46:49;1.40;99.90
10312;DHT22;5201;48.776;9.128;2024-01-15T12:49:15;1.50;99.90
10312;DHT22;5201;48.776;9.128;2024-01-15T12:51:40;1.50;99.90
10312;DHT22;5201;48.776;9.128;2024-01-15T12:54:06;1.40;99.90
10312;DHT22;5201;48.776;9.128;2024-01-15T12:56:32;1.40;99.90
10312;DHT22;5201;48.776;9.128;2024-01-15T12:58:57;1.30;99.90
10312;DHT22;5201;48.776;9.128;2024-01-15T13:01:23;1.30;99.90
10312;DHT22;5201;48.776;9.128;2024-01-15T13:03:48;1.30;99.90
10312;DHT22;5201;48.776;9.128;2024-01-15T13:06:14;1.30;99.90
10312;DHT22;5201;48.776;9.128;2024-01-15T13:08:39;1.30;99.90
10312;DHT22;5201;48.776;9.128;2024-01-15T13:11:05;1.20;99.90
10312;DHT22;5201;48.776;9.128;2024-01-15T13:13:31;1.30;99.90
10312;DHT22;5201;48.776;9.128;2024-01-15T13:15:59;1.50;99.90
10312;DHT22;5201;48.776;9.128;2024-01-15T13:18:25;1.50;99.90
10312;DHT22;5201;48.776;9.128;2024-01-15T13:20:51;1.50;99.90
10312;DHT22;5201;48.776;9.128;2024-01-15T13:23:16;1.50;99.90
10312;DHT22;5201;48.776;9.128;2024-01-15T13:25:42;1.50;99.90
10312;DHT22;5201;48.776;9.128;2024-01-15T13:28:07;1.40;99.90
10312;DHT22;5201;48.776;9.128;2024-01-15T13:30:33;1.50;99.90
10312;DHT22;5201;48.776;9.128;2024-01-15T13:32:59;1.60;99.90
10312;DHT22;5201;48.776;9.128;2024-01-15T13:35:29;1.60;99.90
10312;DHT22;5201;48.776;9.128;2024-01-15T13:37:55;2.30;99.90
10312;DHT22;5201;48.776;9.128;2024-01-15T13:40:20;1.60;99.90
10312;DHT22;5201;48.776;9.128;2024-01-15T13:42:46;1.60;99.90
10312;DHT22;5201;48.776;9.128;2024-01-15T13:45:13;1.70;99.90
10312;DHT22;5201;48.776;9.128;2024-01-15T13:47:42;1.60;99.90
10312;DHT22;5201;48.776;9.128;2024-01-15T13:50:09;1.60;99.90
10312;DHT22;5201;48.776;9.128;2024-01-15T13:52:35;3.50;99.90
10312;DHT22;5201;48.776;9.128;2024-01-15T13:55:01;1.80;99.90
10312;DHT22;5201;48.776;9.128;2024-01-15T13:57:27;1.80;99.90
10312;DHT22;5201;48.776;9.128;2024-01-15T13:59:52;1.90;99.90
10312;DHT22;5201;48.776;9.128;2024-01-15T14:02:18;2.00;99.90
10312;DHT22;5201;48.776;9.128;2024-01-15T14:04:45;2.00;99.90
10312;DHT22;5201;48.776;9.128;2024-01-15T14:07:11;2.00;99.90
10312;DHT22;5201;48.776;9.128;2024-01-15T14:09:36;1.90;99.90
10312;DHT22;5201;48.776;9.128;2024-01-15T14:12:03;2.00;99.90
10312;DHT22;5201;48.776;9.128;2024-01-15T14:14:29;2.00;99.90
10312;DHT22;5201;48.776;9.128;2024-01-15T14:16:54;1.90;99.90
10312;DHT22;5201;48.776;9.128;2024-01-15T14:19:20;1.70;99.90
10312;DHT22;5201;48.776;9.128;2024-01-15T14:21:46;1.70;99.90
10312;DHT22;5201;48.776;9.128;2024-01-15T14:24:11;1.80;99.90
10312;DHT22;5201;48.776;9.128;2024-01-15T14:26:37;1.70;99.90
10312;DHT22;5201;48.776;9.128;2024-01-15T14:29:02;2.20;99.90
10312;DHT22;5201;48.776;9.128;2024-01-15T14:31:28;1.80;99.90
10312;DHT22;5201;48.776;9.128;2024-01-15T14:33:54;1.60;99.90
10312;DHT22;5201;48.776;9.128;2024-01-15T14:36:20;1.50;99.90
10312;DHT22;5201;48.776;9.128;2024-01-15T14:38:46;1.50;99.90
10312;DHT22;5201;48.776;9.128;2024-01-15T14:41:11;1.50;99.90
10312;DHT22;5201;48.776;9.128;2024-01-15T14:43:37;1.50;99.90
10312;DHT22;5201;48.776;9.128;2024-01-15T14:46:03;1.40;99.90
10312;DHT22;5201;48.776;9.128;2024-01-15T14:48:28;1.30;99.90
10312;DHT22;5201;48.776;9.128;2024-01-15T14:50:55;1.40;99.90
10312;DHT22;5201;48.776;9.128;2024-01-15T14:53:20;2.00;99.90
10312;DHT22;5201;48.776;9.128;2024-01-15T14:55:46;1.40;99.90
10312;DHT22;5201;48.776;9.128;2024-01-15T14:58:12;1.50;99.90
10312;DHT22;5201;48.776;9.128;2024-01-15T15:00:38;1.60;99.90
10312;DHT22;5201;48.776;9.128;2024-01-15T15:03:03;1.90;99.90
10312;DHT22;5201;48.776;9.128;2024-01-15T15:05:29;1.50;99.90
10312;DHT22;5201;48.776;9.128;2024-01-15T15:07:55;1.50;99.90
10312;DHT22;5201;48.776;9.128;2024-01-15T15:10:20;1.60;99.90
10312;DHT22;5201;48.776;9.128;2024-01-15T15:12:46;1.50;99.90
10312;DHT22;5201;48.776;9.128;2024-01-15T15:15:11;1.40;99.90
10312;DHT22;5201;48.776;9.128;2024-01-15T15:17:39;1.20;99.90
10312;DHT22;5201;48.776;9.128;2024-01-15T15:20:06;1.20;99.90
10312;DHT22;5201;48.776;9.128;2024-01-15T15:22:32;1.30;99.90
10312;DHT22;5201;48.776;9.128;2024-01-15T15:24:57;1.20;99.90
10312;DHT22;5201;48.776;9.128;2024-01-15T15:27:23;1.20;99.90
10312;DHT22;5201;48.776;9.128;2024-01-15T15:29:48;1.20;99.90
10312;DHT22;5201;48.776;9.128;2024-01-15T15:32:15;1.10;99.90
10312;DHT22;5201;48.776;9.128;2024-01-15T15:34:41;1.30;99.90
10312;DHT22;5201;48.776;9.128;2024-01-15T15:37:07;1.30;99.90
10312;DHT22;5201;48.776;9.128;2024-01-15T15:39:33;1.30;99.90
10312;DHT22;5201;48.776;9.128;2024-01-15T15:41:58;1.40;99.90
10312;DHT22;5201;48.776;9.128;2024-01-15T15:44:24;1.40;99.90
10312;DHT22;5201;48.776;9.128;2024-01-15T15:46:50;1.40;99.90
10312;DHT22;5201;48.776;9.128;2024-01-15T15:49:15;1.40;99.90
10312;DHT22;5201;48.776;9.128;2024-01-15T15:51:41;1.40;99.90
10312;DHT22;5201;48.776;9.128;2024-01-15T15:54:07;1.40;99.90
10312;DHT22;5201;48.776;9.128;2024-01-15T15:56:33;1.70;99.90
10312;DHT22;5201;48.776;9.128;2024-01-15T15:59:06;1.40;99.90
10312;DHT22;5201;48.776;9.128;2024-01-15T16:01:33;1.30;99.90